Time;durP1;ratioP1;P1;durP2;ratioP2;P2;SDS_P1;SDS_P2;PMS_P1;PMS_P2;Temp;Humidity;BMP_temperature;BMP_pressure;BME280_temperature;BME280_humidity;BME280_pressure;Samples;Min_cycle;Max_cycle;Signal;HPM_P1;HPM_P2
2022/05/14 00:02:46;;;;;;;5.07;1.63;;;;;;;11.85;70.59;101198.94;6243640;23;20066;-72
2022/05/14 00:05:50;;;;;;;3.53;1.40;;;;;;;11.75;70.70;101198.47;6243537;22;20086;-72
2022/05/14 00:08:54;;;;;;;4.60;1.30;;;;;;;11.70;70.72;101199.59;6243190;23;20031;-72
2022/05/14 00:15:23;;;;;;;4.18;1.77;;;;;;;11.43;71.62;101197.31;6244260;23;20027;-72
2022/05/14 00:18:28;;;;;;;4.15;1.73;;;;;;;11.43;71.78;101196.47;6244587;23;20153;-72
2022/05/14 00:21:37;;;;;;;4.45;1.60;;;;;;;11.51;71.58;101202.22;6244457;23;20023;-72
2022/05/14 00:24:41;;;;;;;5.55;1.58;;;;;;;11.49;71.48;101198.81;6244373;23;20059;-72
2022/05/14 00:27:46;;;;;;;5.05;1.27;;;;;;;11.48;71.31;101205.81;6244719;23;20066;-72
2022/05/14 00:30:51;;;;;;;8.02;1.52;;;;;;;11.32;71.94;101195.16;6226045;23;20027;-72
2022/05/14 00:33:57;;;;;;;6.55;1.58;;;;;;;11.27;71.87;101197.16;6226230;23;20027;-72
2022/05/14 00:37:01;;;;;;;4.75;1.30;;;;;;;11.31;71.73;101197.88;6244349;23;20147;-72
2022/05/14 00:40:12;;;;;;;4.28;1.40;;;;;;;11.30;71.31;101202.25;6244700;23;20027;-72
2022/05/14 00:43:15;;;;;;;3.58;1.30;;;;;;;11.26;71.65;101200.69;6226117;23;20047;-72
2022/05/14 00:46:57;;;;;;;4.70;1.23;;;;;;;11.16;72.11;101207.25;6226038;23;20023;-72
2022/05/14 00:50:06;;;;;;;4.45;1.60;;;;;;;11.10;72.27;101212.75;6226154;23;20027;-72
2022/05/14 00:53:20;;;;;;;5.53;1.48;;;;;;;11.23;72.02;101208.69;6243233;23;20439;-72
2022/05/14 00:56:28;;;;;;;4.15;1.38;;;;;;;11.10;72.35;101200.53;6208855;23;20074;-72
2022/05/14 00:59:37;;;;;;;5.22;1.60;;;;;;;11.16;71.67;101204.63;6226266;23;20481;-72
2022/05/14 01:02:41;;;;;;;4.32;1.42;;;;;;;10.94;72.53;101197.72;6226051;23;20042;-72
2022/05/14 01:05:45;;;;;;;6.50;1.13;;;;;;;10.93;72.67;101208.25;6244423;23;20400;-72
2022/05/14 01:08:49;;;;;;;3.33;1.00;;;;;;;10.82;72.92;101200.03;6225889;23;20022;-72
2022/05/14 01:11:54;;;;;;;7.28;1.55;;;;;;;10.81;73.12;101198.28;6244537;23;20074;-72
2022/05/14 01:15:49;;;;;;;4.38;1.48;;;;;;;10.85;73.14;101192.88;6243082;23;20023;-72
2022/05/14 01:18:53;;;;;;;4.93;1.48;;;;;;;10.82;73.15;101195.63;6226497;23;20419;-72
2022/05/14 01:22:17;;;;;;;4.25;1.10;;;;;;;10.78;73.42;101191.41;6227970;23;20094;-72
2022/05/14 01:26:29;;;;;;;3.97;1.27;;;;;;;10.79;73.16;101200.16;6228091;23;20086;-72
2022/05/14 01:29:42;;;;;;;3.33;1.08;;;;;;;10.94;72.31;101202.09;6220836;23;20073;-72
2022/05/14 01:33:04;;;;;;;5.03;1.35;;;;;;;10.91;72.19;101195.25;6228047;23;20024;-72
2022/05/14 01:36:11;;;;;;;6.18;1.17;;;;;;;10.88;71.94;101195.38;6227499;23;20023;-72
2022/05/14 01:39:16;;;;;;;4.78;1.20;;;;;;;10.74;72.03;101197.72;6227814;23;20516;-72
2022/05/14 01:42:31;;;;;;;;;;;;;;;;;;;;;
2022/05/14 01:45:37;;;;;;;3.35;1.60;;;;;;;10.52;72.28;101196.91;6245806;22;20030;-72
2022/05/14 01:48:42;;;;;;;3.95;1.30;;;;;;;10.67;72.48;101191.03;6227547;23;20347;-72
2022/05/14 01:51:48;;;;;;;4.78;1.98;;;;;;;10.62;72.28;101204.28;6227420;23;20478;-72
2022/05/14 01:54:55;;;;;;;6.70;1.40;;;;;;;10.44;72.79;101200.69;6227651;23;20027;-72
2022/05/14 01:57:58;;;;;;;4.25;1.17;;;;;;;10.38;72.92;101206.16;6227836;23;20027;-72
2022/05/14 02:01:20;;;;;;;6.13;1.20;;;;;;;10.35;73.31;101195.84;6227471;23;20035;-72
2022/05/14 02:04:24;;;;;;;3.10;1.17;;;;;;;10.42;73.25;101196.44;6246130;23;20042;-72
2022/05/14 02:07:32;;;;;;;4.75;1.38;;;;;;;10.46;73.00;101198.88;6245909;23;20022;-72
2022/05/14 02:10:36;;;;;;;3.97;1.63;;;;;;;10.44;72.67;101200.69;6227262;23;20026;-72
2022/05/14 02:13:41;;;;;;;4.18;1.08;;;;;;;10.32;73.03;101190.72;6226914;23;20027;-72
2022/05/14 02:16:48;;;;;;;3.67;1.17;;;;;;;10.30;73.00;101192.53;6245574;23;20031;-72
2022/05/14 02:19:56;;;;;;;3.05;1.23;;;;;;;10.36;72.59;101194.91;6226996;23;20026;-72
2022/05/14 02:23:00;;;;;;;4.18;1.30;;;;;;;10.30;72.07;101191.69;6227062;23;20018;-72
2022/05/14 02:26:07;;;;;;;3.08;1.20;;;;;;;10.38;71.85;101198.31;6245844;23;20022;-72
2022/05/14 02:29:13;;;;;;;4.63;1.95;;;;;;;10.31;72.46;101196.03;6227209;23;20023;-73
2022/05/14 02:32:21;;;;;;;5.00;1.33;;;;;;;10.26;72.39;101193.59;6245644;23;20078;-72
2022/05/14 02:35:25;;;;;;;3.88;1.00;;;;;;;10.17;72.66;101192.16;6244818;23;20040;-72
2022/05/14 02:38:31;;;;;;;6.63;1.40;;;;;;;10.13;72.98;101194.97;6213836;23;20349;-72
2022/05/14 02:41:37;;;;;;;5.53;1.70;;;;;;;10.12;73.55;101193.28;6215122;23;20150;-72
2022/05/14 02:44:42;;;;;;;4.30;1.65;;;;;;;10.35;72.01;101190.59;6213148;23;20376;-72
2022/05/14 02:47:46;;;;;;;3.90;1.25;;;;;;;10.31;71.62;101191.66;6211827;23;20087;-72
2022/05/14 02:50:52;;;;;;;7.47;1.75;;;;;;;10.19;71.88;101194.72;6214326;23;20088;-72
2022/05/14 02:53:56;;;;;;;3.30;1.10;;;;;;;10.07;72.67;101189.97;6214197;23;20088;-72
2022/05/14 02:56:59;;;;;;;4.85;1.13;;;;;;;10.12;72.82;101191.50;6214105;23;20376;-72
2022/05/14 03:00:06;;;;;;;4.35;1.50;;;;;;;10.09;72.59;101191.63;6214266;23;20361;-72
2022/05/14 03:03:10;;;;;;;4.30;1.30;;;;;;;9.95;72.56;101196.53;6213527;23;20051;-72
2022/05/14 03:06:16;;;;;;;4.07;1.38;;;;;;;10.01;72.24;101197.13;6213701;23;20027;-72
2022/05/14 03:09:20;;;;;;;3.15;0.93;;;;;;;9.97;72.63;101195.56;6214842;23;20082;-72
2022/05/14 03:12:26;;;;;;;4.75;1.33;;;;;;;9.94;72.25;101198.28;6213187;23;20070;-72
2022/05/14 03:15:30;;;;;;;4.43;1.27;;;;;;;9.85;72.34;101200.41;6214890;23;20039;-72
2022/05/14 03:18:34;;;;;;;4.00;1.58;;;;;;;9.70;73.13;101192.25;6213568;23;20513;-72
2022/05/14 03:21:39;;;;;;;3.90;1.05;;;;;;;9.84;72.29;101189.13;6214044;23;20126;-72
2022/05/14 03:24:43;;;;;;;4.13;1.30;;;;;;;9.72;72.91;101200.03;6212176;23;20047;-72
2022/05/14 03:27:48;;;;;;;5.32;1.65;;;;;;;9.83;72.50;101191.78;6212501;23;20059;-72
2022/05/14 03:30:52;;;;;;;5.82;1.63;;;;;;;9.72;72.62;101190.44;6230289;23;20023;-72
2022/05/14 03:33:56;;;;;;;4.10;1.27;;;;;;;9.67;72.86;101194.16;6214478;23;20040;-72
2022/05/14 03:37:00;;;;;;;3.80;1.33;;;;;;;9.78;72.69;101194.56;6222596;23;20027;-72
2022/05/14 03:40:08;;;;;;;3.40;1.35;;;;;;;9.77;72.58;101201.56;6244902;23;20481;-72
2022/05/14 03:43:12;;;;;;;2.50;1.10;;;;;;;9.47;73.25;101195.72;6225891;23;20023;-72
2022/05/14 03:46:17;;;;;;;4.45;1.38;;;;;;;9.66;72.71;101200.25;6244094;22;20475;-72
2022/05/14 03:49:23;;;;;;;3.65;1.42;;;;;;;9.53;73.36;101205.94;6226099;23;20027;-72
2022/05/14 03:52:27;;;;;;;5.07;1.17;;;;;;;9.51;73.55;101196.47;6223440;23;20031;-72
2022/05/14 03:55:32;;;;;;;3.58;1.40;;;;;;;9.57;73.61;101196.22;6240737;23;20497;-72
2022/05/14 03:58:36;;;;;;;5.30;1.30;;;;;;;9.65;72.05;101196.78;6239759;23;20486;-72
2022/05/14 04:01:41;;;;;;;3.67;1.42;;;;;;;9.50;73.57;101205.19;6220229;23;20022;-72
2022/05/14 04:04:46;;;;;;;6.78;1.40;;;;;;;9.52;73.45;101206.00;6221279;23;20414;-72
2022/05/14 04:07:51;;;;;;;6.60;1.52;;;;;;;9.48;73.19;101201.81;6221081;23;20046;-72
2022/05/14 04:10:56;;;;;;;4.68;1.65;;;;;;;9.41;73.54;101209.00;6220820;23;20030;-72
2022/05/14 04:13:59;;;;;;;6.70;1.67;;;;;;;9.42;73.40;101208.09;6239087;23;20461;-72
2022/05/14 04:17:05;;;;;;;5.20;1.50;;;;;;;9.48;73.36;101207.03;6220203;23;20027;-72
2022/05/14 04:20:11;;;;;;;3.58;1.70;;;;;;;9.43;73.61;101209.78;6220832;23;20027;-72
2022/05/14 04:23:15;;;;;;;3.63;1.67;;;;;;;9.40;73.69;101219.50;6220892;23;20344;-72
2022/05/14 04:26:24;;;;;;;3.97;1.30;;;;;;;9.36;73.67;101221.38;6239775;23;20066;-72
2022/05/14 04:29:28;;;;;;;4.00;1.83;;;;;;;9.24;73.53;101220.03;6220696;23;20470;-72
2022/05/14 04:32:31;;;;;;;3.38;1.33;;;;;;;9.42;72.94;101218.53;6220685;23;20081;-72
2022/05/14 04:35:42;;;;;;;4.28;1.70;;;;;;;9.52;72.16;101214.69;6217313;23;20287;-72
2022/05/14 04:38:51;;;;;;;5.70;1.95;;;;;;;9.49;72.19;101220.00;6155860;23;20051;-72
2022/05/14 04:41:56;;;;;;;4.45;1.55;;;;;;;9.49;73.51;101225.22;6172591;23;20036;-72
2022/05/14 04:45:00;;;;;;;2.88;1.50;;;;;;;9.62;73.05;101220.41;6174895;23;20087;-72
2022/05/14 04:48:05;;;;;;;3.70;1.55;;;;;;;9.67;73.03;101225.47;6172662;23;20228;-72
2022/05/14 04:51:09;;;;;;;3.97;1.85;;;;;;;9.72;73.02;101226.97;6173111;23;20432;-72
2022/05/14 04:54:15;;;;;;;4.18;2.17;;;;;;;9.55;73.83;101229.38;6199969;23;20105;-72
2022/05/14 04:57:20;;;;;;;4.88;2.10;;;;;;;9.53;74.46;101226.81;6183516;23;20027;-72
2022/05/14 05:00:23;;;;;;;4.05;1.90;;;;;;;9.53;74.34;101225.97;6184944;23;20027;-72
2022/05/14 05:03:28;;;;;;;5.40;2.17;;;;;;;9.55;74.50;101234.59;6185552;23;20067;-72
2022/05/14 05:06:37;;;;;;;6.20;1.77;;;;;;;9.44;74.99;101227.16;6202098;23;20429;-72
2022/05/14 05:09:40;;;;;;;6.75;2.15;;;;;;;9.54;74.99;101228.53;6180681;23;20427;-72
2022/05/14 05:12:45;;;;;;;7.28;2.20;;;;;;;9.70;74.50;101233.16;6178206;23;20059;-72
2022/05/14 05:15:49;;;;;;;7.93;2.28;;;;;;;9.66;74.35;101228.97;6180070;23;20063;-72
2022/05/14 05:18:54;;;;;;;4.50;1.83;;;;;;;9.73;73.95;101226.09;6179618;23;20212;-72
2022/05/14 05:21:57;;;;;;;3.63;1.55;;;;;;;9.79;73.29;101232.81;6181268;23;20092;-72
2022/05/14 05:25:02;;;;;;;7.78;2.40;;;;;;;9.59;73.97;101235.34;6180477;23;20055;-72
2022/05/14 05:28:06;;;;;;;5.00;1.60;;;;;;;9.27;75.75;101240.81;6179047;23;20073;-72
2022/05/14 05:31:12;;;;;;;3.72;1.63;;;;;;;9.34;75.78;101244.06;6180524;23;20024;-72
2022/05/14 05:34:16;;;;;;;5.00;1.80;;;;;;;9.38;76.14;101244.78;6180578;23;20507;-72
2022/05/14 05:37:21;;;;;;;3.83;1.77;;;;;;;9.52;75.58;101250.38;6205833;23;20463;-72
2022/05/14 05:40:26;;;;;;;4.95;2.03;;;;;;;9.69;75.33;101249.75;6242620;23;20495;-72
2022/05/14 05:43:30;;;;;;;4.97;1.83;;;;;;;9.99;74.46;101238.16;6242720;23;20558;-72
2022/05/14 05:46:35;;;;;;;5.75;1.88;;;;;;;10.14;74.57;101239.31;6242420;22;20027;-72
2022/05/14 05:49:40;;;;;;;4.03;1.70;;;;;;;9.82;76.09;101245.78;6240776;23;20015;-72
2022/05/14 05:52:44;;;;;;;4.00;1.38;;;;;;;9.78;76.35;101247.66;6240825;23;20026;-72
2022/05/14 05:59:15;;;;;;;5.18;1.63;;;;;;;10.34;75.38;101245.53;6241870;23;20039;-72
2022/05/14 06:02:21;;;;;;;4.18;1.65;;;;;;;10.51;74.35;101248.34;6241328;23;20077;-72
2022/05/14 06:05:27;;;;;;;2.83;1.35;;;;;;;10.59;74.45;101255.88;6241809;23;20105;-72
2022/05/14 06:08:32;;;;;;;3.92;1.90;;;;;;;10.47;75.41;101255.47;6241651;23;20486;-72
2022/05/14 06:11:41;;;;;;;4.93;1.90;;;;;;;10.41;76.25;101255.72;6240723;23;20027;-72
2022/05/14 06:14:45;;;;;;;4.22;1.92;;;;;;;10.65;76.06;101251.25;6241041;23;20039;-72
2022/05/14 06:17:49;;;;;;;4.38;1.92;;;;;;;10.81;75.74;101245.38;6241217;23;20023;-72
2022/05/14 06:20:54;;;;;;;3.65;2.10;;;;;;;10.74;75.62;101249.19;6241480;23;20027;-72
2022/05/14 06:23:59;;;;;;;6.75;2.08;;;;;;;10.94;75.83;101251.78;6242727;23;20070;-72
2022/05/14 06:27:04;;;;;;;5.57;1.67;;;;;;;11.10;75.85;101252.00;6241743;23;20027;-72
2022/05/14 06:30:10;;;;;;;4.25;1.50;;;;;;;11.38;74.31;101256.91;6241377;22;20627;-72
2022/05/14 06:33:14;;;;;;;4.03;1.88;;;;;;;11.71;73.18;101249.31;6222495;23;20519;-72
2022/05/14 06:36:18;;;;;;;4.70;1.50;;;;;;;11.94;72.65;101255.31;6241472;23;20300;-72
2022/05/14 06:39:22;;;;;;;7.22;2.78;;;;;;;12.06;72.06;101254.72;6240181;23;20352;-72
2022/05/14 06:42:26;;;;;;;5.45;1.92;;;;;;;12.18;71.94;101243.66;6238482;23;20019;-72
2022/05/14 06:45:33;;;;;;;6.38;1.85;;;;;;;12.32;71.50;101248.25;6222892;23;20086;-72
2022/05/14 06:48:37;;;;;;;4.50;1.63;;;;;;;12.48;71.25;101253.63;6241455;22;20069;-72
2022/05/14 06:51:43;;;;;;;5.72;2.03;;;;;;;12.57;71.15;101254.00;6241260;23;20070;-72
2022/05/14 06:54:49;;;;;;;5.18;2.10;;;;;;;12.69;71.04;101251.69;6239776;23;20082;-72
2022/05/14 06:57:53;;;;;;;6.32;2.10;;;;;;;12.79;71.49;101245.06;6239724;23;20504;-72
2022/05/14 07:00:59;;;;;;;4.00;1.65;;;;;;;12.81;71.78;101258.97;6221276;23;20030;-72
2022/05/14 07:07:31;;;;;;;6.15;1.92;;;;;;;13.01;71.82;101250.09;6240659;23;20379;-72
2022/05/14 07:10:35;;;;;;;5.82;2.70;;;;;;;13.13;71.71;101244.22;6240233;22;20505;-72
2022/05/14 07:13:40;;;;;;;4.82;1.90;;;;;;;13.30;71.10;101251.22;6240683;23;20026;-72
2022/05/14 07:16:45;;;;;;;6.70;1.90;;;;;;;13.36;71.46;101242.19;6217023;23;20463;-72
2022/05/14 07:19:51;;;;;;;7.35;2.13;;;;;;;13.56;70.62;101242.00;6236947;23;20071;-72
2022/05/14 07:26:58;;;;;;;5.53;2.00;;;;;;;13.87;69.13;101248.22;6244489;23;20343;-73
2022/05/14 07:30:08;;;;;;;8.48;2.20;;;;;;;14.08;67.59;101241.78;6244287;23;20343;-73
2022/05/14 07:33:13;;;;;;;7.30;1.65;;;;;;;14.29;65.53;101236.25;6244358;23;20058;-73
2022/05/14 07:36:24;;;;;;;8.70;2.13;;;;;;;14.42;65.21;101229.34;6244561;23;20458;-72
2022/05/14 07:39:40;;;;;;;5.60;1.85;;;;;;;14.42;62.93;101234.63;6184158;23;20027;-72
2022/05/14 07:42:50;;;;;;;5.10;2.03;;;;;;;14.43;61.55;101223.19;6184214;23;20024;-72
2022/05/14 07:45:58;;;;;;;4.32;1.40;;;;;;;14.39;61.70;101221.66;6184456;23;20028;-72
2022/05/14 07:49:12;;;;;;;8.85;1.42;;;;;;;14.54;62.25;101226.06;6184203;23;20079;-72
2022/05/14 07:52:17;;;;;;;9.15;1.40;;;;;;;14.98;61.38;101224.41;6184350;23;20454;-72
2022/05/14 07:55:21;;;;;;;6.00;1.23;;;;;;;14.98;57.78;101225.25;6184153;23;20028;-72
2022/05/14 07:58:25;;;;;;;6.22;2.22;;;;;;;14.96;57.05;101227.09;6184547;23;20089;-72
2022/05/14 08:01:29;;;;;;;8.45;1.20;;;;;;;15.02;57.23;101232.00;6184008;23;20024;-72
2022/05/14 08:04:33;;;;;;;5.75;1.10;;;;;;;15.10;55.53;101226.31;6184563;23;20031;-72
2022/05/14 08:07:37;;;;;;;6.70;1.23;;;;;;;15.11;55.40;101226.19;6182957;23;20104;-72
2022/05/14 08:10:43;;;;;;;6.78;1.52;;;;;;;15.23;54.59;101223.78;6183360;23;20100;-72
2022/05/14 08:13:50;;;;;;;7.13;1.38;;;;;;;15.25;55.03;101220.13;6184270;23;20212;-72
2022/05/14 08:16:58;;;;;;;7.18;1.50;;;;;;;15.46;54.46;101214.47;6184242;23;20103;-72
2022/05/14 08:20:03;;;;;;;6.55;1.83;;;;;;;15.50;54.18;101221.22;6184311;23;20070;-72
2022/05/14 08:26:32;;;;;;;5.93;1.13;;;;;;;15.53;53.40;101219.25;6184024;23;20028;-72
2022/05/14 08:29:36;;;;;;;8.63;1.52;;;;;;;15.57;53.62;101217.25;6184615;23;20055;-72
2022/05/14 08:32:41;;;;;;;5.53;1.30;;;;;;;15.64;53.37;101218.59;6186261;23;20076;-73
2022/05/14 08:35:46;;;;;;;9.75;1.90;;;;;;;15.74;51.37;101208.34;6186088;23;20023;-72
2022/05/14 08:38:54;;;;;;;5.18;1.00;;;;;;;15.86;52.43;101209.34;6186241;23;20514;-72
2022/05/14 08:42:00;;;;;;;6.35;1.35;;;;;;;15.92;51.64;101212.47;6186010;23;20067;-72
2022/05/14 08:45:06;;;;;;;5.95;1.20;;;;;;;15.98;50.66;101212.03;6186408;23;20027;-72
2022/05/14 08:48:14;;;;;;;8.25;1.85;;;;;;;16.04;50.75;101206.38;6184991;23;20072;-73
2022/05/14 08:51:24;;;;;;;8.27;1.17;;;;;;;16.04;51.39;101197.63;6185541;23;20079;-73
2022/05/14 08:54:32;;;;;;;4.93;1.55;;;;;;;16.14;51.45;101197.88;6186086;23;20083;-73
2022/05/14 08:58:03;;;;;;;5.68;1.35;;;;;;;16.24;50.87;101201.59;6186108;23;20028;-73
2022/05/14 09:01:13;;;;;;;9.90;1.85;;;;;;;16.35;50.21;101206.19;6186181;23;20047;-73
2022/05/14 09:04:20;;;;;;;3.97;1.38;;;;;;;16.36;50.05;101206.09;6185438;23;20027;-73
2022/05/14 09:07:31;;;;;;;5.13;0.95;;;;;;;16.47;50.51;101208.03;6186317;23;20128;-72
2022/05/14 09:10:42;;;;;;;4.78;1.33;;;;;;;16.50;49.72;101198.13;6185192;23;20087;-73
2022/05/14 09:13:59;;;;;;;5.57;1.17;;;;;;;16.66;50.28;101197.09;6186677;23;20060;-73
2022/05/14 09:17:20;;;;;;;4.85;1.35;;;;;;;16.69;49.15;101186.34;6186466;23;20451;-73
2022/05/14 09:20:25;;;;;;;5.70;1.50;;;;;;;16.64;48.96;101191.06;6185490;23;20088;-73
2022/05/14 09:23:43;;;;;;;6.93;1.20;;;;;;;17.07;49.85;101181.09;6184742;23;20211;-74
2022/05/14 09:26:47;;;;;;;6.88;1.33;;;;;;;17.27;48.96;101187.63;6184162;23;20028;-73
2022/05/14 09:29:55;;;;;;;5.20;1.58;;;;;;;17.24;48.81;101187.84;6185897;23;20027;-73
2022/05/14 09:33:00;;;;;;;6.60;1.35;;;;;;;17.08;49.13;101181.94;6185979;23;20028;-73
2022/05/14 09:36:13;;;;;;;6.03;1.60;;;;;;;17.18;48.87;101177.72;6186091;23;20144;-73
2022/05/14 09:39:22;;;;;;;6.18;1.77;;;;;;;17.25;48.22;101186.88;6184795;23;20071;-73
2022/05/14 09:42:54;;;;;;;4.43;1.00;;;;;;;17.39;47.70;101176.22;6185483;23;20391;-73
2022/05/14 09:46:10;;;;;;;7.93;1.60;;;;;;;17.70;47.23;101179.31;6182719;23;20075;-73
2022/05/14 09:49:23;;;;;;;7.60;1.50;;;;;;;17.63;47.22;101180.69;6182538;23;20107;-73
2022/05/14 09:52:30;;;;;;;5.63;1.08;;;;;;;17.69;47.13;101176.78;6183440;23;20087;-74
2022/05/14 09:55:54;;;;;;;7.68;1.50;;;;;;;17.65;47.27;101177.00;6184062;23;20032;-73
2022/05/14 09:59:20;;;;;;;7.55;1.50;;;;;;;17.83;47.98;101168.72;6183610;23;20551;-74
2022/05/14 10:02:45;;;;;;;5.38;1.33;;;;;;;17.93;47.40;101164.44;6184546;23;20449;-73
2022/05/14 10:06:10;;;;;;;9.75;1.30;;;;;;;18.01;47.56;101155.94;6185242;23;20028;-74
2022/05/14 10:09:40;;;;;;;4.55;1.42;;;;;;;17.95;47.44;101159.03;6184811;23;20024;-73
2022/05/14 10:12:52;;;;;;;4.50;1.60;;;;;;;17.90;47.71;101159.41;6184785;23;20028;-74
2022/05/14 10:16:19;;;;;;;5.22;1.52;;;;;;;18.10;47.99;101160.56;6186150;23;20357;-73
2022/05/14 10:19:43;;;;;;;5.28;1.33;;;;;;;18.07;47.89;101152.84;6184567;23;20024;-74
2022/05/14 10:26:46;;;;;;;6.95;1.63;;;;;;;18.49;45.84;101150.59;6185307;23;20352;-73
2022/05/14 10:30:16;;;;;;;5.97;1.50;;;;;;;18.60;45.90;101147.97;6183977;23;20040;-74
2022/05/14 10:33:30;;;;;;;5.25;1.10;;;;;;;18.74;44.91;101145.16;6180664;23;20159;-72
2022/05/14 10:36:52;;;;;;;4.63;1.38;;;;;;;18.69;45.41;101146.44;6182945;23;20188;-74
2022/05/14 10:40:35;;;;;;;10.32;1.27;;;;;;;19.12;44.09;101149.28;6239094;23;20030;-74
2022/05/14 10:43:52;;;;;;;5.70;1.58;;;;;;;19.12;44.63;101140.50;6240207;23;20035;-74
2022/05/14 10:47:03;;;;;;;4.95;1.25;;;;;;;18.87;45.03;101138.91;6240876;23;20490;-74
2022/05/14 10:50:19;;;;;;;5.57;1.67;;;;;;;18.79;44.78;101135.06;6239952;23;20459;-74
2022/05/14 10:53:23;;;;;;;4.20;1.13;;;;;;;18.89;42.01;101123.72;6221005;23;20023;-74
2022/05/14 10:56:36;;;;;;;6.07;1.30;;;;;;;19.49;40.14;101125.16;6239577;23;20371;-74
2022/05/14 10:59:50;;;;;;;3.40;1.15;;;;;;;19.08;41.45;101104.56;6238386;23;20023;-73
2022/05/14 11:03:02;;;;;;;5.25;1.30;;;;;;;19.18;42.36;101109.06;6234222;23;20099;-74
2022/05/14 11:06:10;;;;;;;3.67;0.90;;;;;;;19.56;40.36;101104.28;6234406;23;20022;-73
2022/05/14 11:09:44;;;;;;;5.45;1.30;;;;;;;19.46;38.76;101114.78;6235364;23;20081;-73
2022/05/14 11:12:50;;;;;;;2.65;0.70;;;;;;;19.52;39.98;101107.19;6235565;23;20031;-73
2022/05/14 11:16:07;;;;;;;5.28;1.10;;;;;;;19.62;36.16;101099.34;6234577;23;20031;-73
2022/05/14 11:19:27;;;;;;;4.57;0.93;;;;;;;19.91;36.75;101104.94;6235809;23;20078;-73
2022/05/14 11:22:41;;;;;;;6.70;1.02;;;;;;;20.05;36.42;101100.31;6236424;23;20050;-73
2022/05/14 11:25:47;;;;;;;3.60;0.80;;;;;;;19.95;36.35;101106.38;6236443;23;20031;-73
2022/05/14 11:29:16;;;;;;;2.63;0.93;;;;;;;19.88;34.99;101094.59;6237178;23;20521;-72
2022/05/14 11:32:22;;;;;;;4.97;0.90;;;;;;;20.09;33.88;101102.56;6234888;22;20082;-73
2022/05/14 11:35:43;;;;;;;3.55;0.82;;;;;;;20.29;33.79;101097.41;6236680;23;20451;-73
2022/05/14 11:39:13;;;;;;;5.82;1.08;;;;;;;20.47;32.89;101087.88;6234464;23;20031;-72
2022/05/14 11:42:32;;;;;;;3.65;0.90;;;;;;;20.30;33.04;101083.16;6235719;23;20027;-72
2022/05/14 11:45:50;;;;;;;5.10;1.02;;;;;;;20.46;32.44;101078.25;6237027;23;20027;-72
2022/05/14 11:49:14;;;;;;;3.15;1.10;;;;;;;20.35;33.44;101072.97;6235755;23;20541;-73
2022/05/14 11:52:37;;;;;;;5.35;0.80;;;;;;;20.56;33.12;101079.16;6235776;23;20400;-72
2022/05/14 11:55:49;;;;;;;4.05;1.20;;;;;;;20.64;32.22;101070.50;6237608;23;20446;-73
2022/05/14 12:04:25;;;;;;;2.95;0.60;;;;;;;20.76;32.45;101068.63;6239360;23;20316;-72
2022/05/14 12:07:43;;;;;;;4.45;0.82;;;;;;;20.86;32.49;101062.38;6239092;23;20074;-72
2022/05/14 12:11:00;;;;;;;3.97;1.05;;;;;;;20.98;31.87;101055.16;6221364;23;20351;-72
2022/05/14 12:14:17;;;;;;;4.88;0.95;;;;;;;21.17;31.63;101051.72;6237130;23;20051;-72
2022/05/14 12:17:22;;;;;;;3.92;1.17;;;;;;;21.54;31.17;101054.63;6238725;23;20069;-72
2022/05/14 12:20:31;;;;;;;4.38;1.55;;;;;;;21.47;30.09;101058.78;6239064;23;20402;-72
2022/05/14 12:23:46;;;;;;;5.40;1.05;;;;;;;21.42;30.60;101045.06;6238474;23;20047;-72
2022/05/14 12:26:50;;;;;;;5.03;0.80;;;;;;;21.72;30.27;101046.78;6237930;23;20027;-72
2022/05/14 12:29:55;;;;;;;3.70;1.13;;;;;;;21.85;30.08;101048.31;6238508;23;20527;-73
2022/05/14 12:33:13;;;;;;;4.03;0.90;;;;;;;21.88;28.63;101040.03;6238084;22;20030;-73
2022/05/14 12:36:18;;;;;;;4.25;0.70;;;;;;;22.27;28.86;101032.88;6238620;23;20462;-73
2022/05/14 12:39:28;;;;;;;4.07;1.00;;;;;;;22.66;28.49;101022.13;6238659;23;20086;-72
2022/05/14 12:42:40;;;;;;;2.53;0.95;;;;;;;23.08;27.60;101027.00;6237457;23;20054;-73
2022/05/14 12:45:50;;;;;;;5.18;0.93;;;;;;;23.42;27.10;101027.16;6219876;23;20081;-73
2022/05/14 12:48:56;;;;;;;5.82;1.13;;;;;;;23.31;27.42;101027.41;6238623;23;20114;-72
2022/05/14 12:52:11;;;;;;;4.68;1.23;;;;;;;23.45;28.72;101026.88;6238606;23;20278;-73
2022/05/14 12:55:17;;;;;;;9.55;1.73;;;;;;;23.62;29.03;101011.88;6237936;23;20027;-74
2022/05/14 12:58:23;;;;;;;5.45;1.10;;;;;;;24.03;27.43;101009.56;6237746;23;20529;-72
2022/05/14 13:01:33;;;;;;;9.18;1.42;;;;;;;24.03;25.67;101026.44;6236998;23;20085;-72
2022/05/14 13:04:57;;;;;;;6.05;3.20;;;;;;;24.32;25.90;101015.44;6238138;23;20027;-72
2022/05/14 13:13:01;;;;;;;12.70;10.20;;;;;;;24.69;25.70;101018.81;6150990;23;20025;-72
2022/05/14 13:16:16;;;;;;;6.60;1.08;;;;;;;23.53;24.43;101034.97;6213943;23;20467;-73
2022/05/14 13:19:55;;;;;;;8.23;2.75;;;;;;;23.81;23.93;101027.75;6245620;22;20055;-73
2022/05/14 13:23:12;;;;;;;8.80;1.00;;;;;;;24.22;23.66;101020.03;6244422;23;20022;-73
2022/05/14 13:26:43;;;;;;;10.38;6.43;;;;;;;24.03;23.20;101012.22;6242956;23;20031;-73
2022/05/14 13:30:08;;;;;;;6.53;4.25;;;;;;;25.11;22.85;100997.41;6245933;23;20454;-72
2022/05/14 13:33:32;;;;;;;4.60;1.92;;;;;;;24.59;24.43;100989.53;6246334;23;20027;-72
2022/05/14 13:40:21;;;;;;;4.47;1.00;;;;;;;25.70;22.75;100986.63;6246624;23;20026;-73
2022/05/14 13:43:32;;;;;;;5.45;1.30;;;;;;;26.06;22.91;100992.50;6246767;23;20527;-73
2022/05/14 13:46:52;;;;;;;7.43;1.88;;;;;;;27.57;21.19;100978.94;6246606;23;20023;-73
2022/05/14 13:50:36;;;;;;;5.47;1.58;;;;;;;28.44;20.91;100965.00;6243214;22;20027;-73
2022/05/14 13:54:15;;;;;;;4.18;1.60;;;;;;;30.02;19.36;100974.94;6241874;23;20460;-73
2022/05/14 13:57:24;;;;;;;3.22;1.08;;;;;;;30.50;18.35;100977.72;6245581;23;20026;-73
2022/05/14 14:00:51;;;;;;;7.18;1.35;;;;;;;33.60;14.74;100962.38;6245457;23;20041;-73
2022/05/14 14:03:56;;;;;;;3.70;1.52;;;;;;;35.34;13.37;100958.25;6245573;23;20019;-73
2022/05/14 14:07:07;;;;;;;3.50;1.05;;;;;;;35.98;12.14;100952.16;6246621;23;20055;-73
2022/05/14 14:10:18;;;;;;;5.13;1.63;;;;;;;34.36;14.67;100944.94;6246402;23;20109;-73
2022/05/14 14:13:25;;;;;;;5.55;1.35;;;;;;;34.53;16.30;100943.31;6246296;23;20066;-74
2022/05/14 14:16:30;;;;;;;4.75;1.25;;;;;;;29.57;17.69;100950.09;6246540;23;20023;-73
2022/05/14 14:19:35;;;;;;;4.97;1.42;;;;;;;32.73;15.54;100933.13;6246724;23;20031;-73
2022/05/14 14:22:40;;;;;;;6.57;1.73;;;;;;;29.66;16.65;100949.78;6228071;23;20054;-73
2022/05/14 14:25:44;;;;;;;7.40;1.48;;;;;;;32.97;14.72;100942.41;6246630;23;20066;-74
2022/05/14 14:28:48;;;;;;;6.10;1.67;;;;;;;33.25;13.94;100938.44;6246233;23;20534;-73
2022/05/14 14:31:53;;;;;;;4.75;1.42;;;;;;;37.05;11.28;100929.03;6246337;23;20030;-73
2022/05/14 14:34:59;;;;;;;4.60;1.40;;;;;;;35.36;12.37;100928.13;6246149;23;20094;-73
2022/05/14 14:38:07;;;;;;;5.32;1.60;;;;;;;38.18;11.07;100915.22;6245905;23;20030;-73
2022/05/14 14:41:11;;;;;;;7.13;1.75;;;;;;;37.41;11.99;100922.28;6246295;23;20146;-73
2022/05/14 14:44:40;;;;;;;3.72;1.42;;;;;;;31.98;15.05;100921.94;6245879;22;20050;-74
2022/05/14 14:47:46;;;;;;;3.50;1.20;;;;;;;35.26;12.68;100917.84;6246235;22;20027;-74
2022/05/14 14:51:44;;;;;;;5.50;1.55;;;;;;;36.49;12.46;100915.13;6246160;22;20127;-74
2022/05/14 14:54:48;;;;;;;5.28;1.52;;;;;;;35.97;12.23;100915.97;6246250;23;20097;-74
2022/05/14 14:57:53;;;;;;;3.63;1.52;;;;;;;39.78;10.36;100903.63;6245685;23;20026;-74
2022/05/14 15:00:57;;;;;;;4.00;1.30;;;;;;;36.81;11.76;100903.78;6246194;23;20074;-74
2022/05/14 15:04:30;;;;;;;6.78;1.65;;;;;;;35.47;12.40;100908.25;6239771;23;20066;-74
2022/05/14 15:07:34;;;;;;;4.82;1.50;;;;;;;38.25;10.96;100904.91;6244707;23;20030;-74
2022/05/14 15:10:38;;;;;;;6.00;1.60;;;;;;;38.72;10.97;100909.84;6243669;23;20027;-73
2022/05/14 15:13:44;;;;;;;4.90;1.85;;;;;;;37.43;11.63;100904.59;6245937;23;20497;-80
2022/05/14 15:16:47;;;;;;;7.43;1.80;;;;;;;35.74;14.22;100911.38;6246043;23;20086;-81
2022/05/14 15:19:51;;;;;;;9.77;2.03;;;;;;;37.32;12.34;100901.94;6245687;23;20069;-87
2022/05/14 15:22:55;;;;;;;9.50;1.60;;;;;;;37.03;12.88;100903.94;6245787;23;20467;-82